sensor_id;sensor_type;location;lat;lon;timestamp;pressure;altitude;pressure_sealevel;temperature
25514;BMP180;48128;54.242;10.280;2023-05-07T08:42:44;102023.00;;;12.30
25514;BMP180;48128;54.242;10.280;2023-05-07T08:45:16;102018.00;;;12.40
25514;BMP180;48128;54.242;10.280;2023-05-07T08:47:58;102007.00;;;12.40
25514;BMP180;48128;54.242;10.280;2023-05-07T08:50:26;102020.00;;;12.40
25514;BMP180;48128;54.242;10.280;2023-05-07T08:52:53;102023.00;;;12.30
25514;BMP180;48128;54.242;10.280;2023-05-07T08:55:21;102008.00;;;12.30
25514;BMP180;48128;54.242;10.280;2023-05-07T08:57:48;102013.00;;;12.40
25514;BMP180;48128;54.242;10.280;2023-05-07T09:00:17;102005.00;;;12.50
25514;BMP180;48128;54.242;10.280;2023-05-07T09:02:44;102036.00;;;12.50
25514;BMP180;48128;54.242;10.280;2023-05-07T09:05:15;102009.00;;;12.60
25514;BMP180;48128;54.242;10.280;2023-05-07T09:07:48;102016.00;;;12.70
25514;BMP180;48128;54.242;10.280;2023-05-07T09:10:21;102021.00;;;12.80
25514;BMP180;48128;54.242;10.280;2023-05-07T09:12:51;102024.00;;;12.90
25514;BMP180;48128;54.242;10.280;2023-05-07T09:15:28;102027.00;;;13.00
25514;BMP180;48128;54.242;10.280;2023-05-07T09:17:59;102037.00;;;13.10
25514;BMP180;48128;54.242;10.280;2023-05-07T09:20:30;102041.00;;;13.20
25514;BMP180;48128;54.242;10.280;2023-05-07T09:22:57;102050.00;;;13.30
25514;BMP180;48128;54.242;10.280;2023-05-07T09:25:28;102049.00;;;13.40
25514;BMP180;48128;54.242;10.280;2023-05-07T09:27:56;102041.00;;;13.30
25514;BMP180;48128;54.242;10.280;2023-05-07T09:30:30;102039.00;;;13.40
25514;BMP180;48128;54.242;10.280;2023-05-07T09:33:01;102035.00;;;13.50
25514;BMP180;48128;54.242;10.280;2023-05-07T09:35:31;102046.00;;;13.50
25514;BMP180;48128;54.242;10.280;2023-05-07T09:38:00;102032.00;;;13.60
25514;BMP180;48128;54.242;10.280;2023-05-07T09:40:30;102027.00;;;13.70
25514;BMP180;48128;54.242;10.280;2023-05-07T09:43:09;102044.00;;;13.80
25514;BMP180;48128;54.242;10.280;2023-05-07T09:45:37;102060.00;;;13.80
25514;BMP180;48128;54.242;10.280;2023-05-07T09:48:05;102052.00;;;13.90
25514;BMP180;48128;54.242;10.280;2023-05-07T09:50:36;102058.00;;;14.00
25514;BMP180;48128;54.242;10.280;2023-05-07T09:53:05;102059.00;;;14.10
25514;BMP180;48128;54.242;10.280;2023-05-07T09:55:32;102050.00;;;14.50
25514;BMP180;48128;54.242;10.280;2023-05-07T09:57:59;102042.00;;;14.90
25514;BMP180;48128;54.242;10.280;2023-05-07T10:00:29;102055.00;;;15.10
25514;BMP180;48128;54.242;10.280;2023-05-07T10:02:57;102055.00;;;15.50
25514;BMP180;48128;54.242;10.280;2023-05-07T10:05:24;102064.00;;;15.50
25514;BMP180;48128;54.242;10.280;2023-05-07T10:07:51;102059.00;;;15.60
25514;BMP180;48128;54.242;10.280;2023-05-07T10:10:19;102050.00;;;15.50
25514;BMP180;48128;54.242;10.280;2023-05-07T10:12:46;102061.00;;;15.50
25514;BMP180;48128;54.242;10.280;2023-05-07T10:15:14;102059.00;;;15.60
25514;BMP180;48128;54.242;10.280;2023-05-07T10:17:41;102061.00;;;15.90
25514;BMP180;48128;54.242;10.280;2023-05-07T10:20:09;102042.00;;;15.90
25514;BMP180;48128;54.242;10.280;2023-05-07T10:22:42;102055.00;;;15.80
25514;BMP180;48128;54.242;10.280;2023-05-07T10:25:16;102050.00;;;15.70
25514;BMP180;48128;54.242;10.280;2023-05-07T10:27:45;102044.00;;;15.60
25514;BMP180;48128;54.242;10.280;2023-05-07T10:33:06;102052.00;;;15.40
25514;BMP180;48128;54.242;10.280;2023-05-07T10:35:41;102038.00;;;15.20
25514;BMP180;48128;54.242;10.280;2023-05-07T10:38:09;102047.00;;;15.20
25514;BMP180;48128;54.242;10.280;2023-05-07T10:40:36;102040.00;;;15.40
25514;BMP180;48128;54.242;10.280;2023-05-07T10:43:04;102045.00;;;15.50
25514;BMP180;48128;54.242;10.280;2023-05-07T13:12:20;102030.00;;;18.70
25514;BMP180;48128;54.242;10.280;2023-05-07T13:14:47;102030.00;;;18.40
25514;BMP180;48128;54.242;10.280;2023-05-07T13:17:14;102029.00;;;18.20
25514;BMP180;48128;54.242;10.280;2023-05-07T13:19:41;102022.00;;;18.00
25514;BMP180;48128;54.242;10.280;2023-05-07T13:22:08;102026.00;;;18.00
25514;BMP180;48128;54.242;10.280;2023-05-07T13:24:35;102025.00;;;18.20
25514;BMP180;48128;54.242;10.280;2023-05-07T13:27:03;102018.00;;;18.40
25514;BMP180;48128;54.242;10.280;2023-05-07T13:29:30;102020.00;;;18.60
25514;BMP180;48128;54.242;10.280;2023-05-07T13:31:58;102036.00;;;18.80
25514;BMP180;48128;54.242;10.280;2023-05-07T13:34:25;102012.00;;;18.60
25514;BMP180;48128;54.242;10.280;2023-05-07T13:36:52;102014.00;;;18.70
25514;BMP180;48128;54.242;10.280;2023-05-07T13:39:19;102016.00;;;18.70
25514;BMP180;48128;54.242;10.280;2023-05-07T13:41:46;102003.00;;;18.80
25514;BMP180;48128;54.242;10.280;2023-05-07T13:44:13;102004.00;;;19.00
25514;BMP180;48128;54.242;10.280;2023-05-07T13:46:40;102024.00;;;19.30
25514;BMP180;48128;54.242;10.280;2023-05-07T13:49:07;102024.00;;;19.60
25514;BMP180;48128;54.242;10.280;2023-05-07T13:51:33;102019.00;;;19.40
25514;BMP180;48128;54.242;10.280;2023-05-07T13:54:01;102029.00;;;19.10
25514;BMP180;48128;54.242;10.280;2023-05-07T13:56:28;102041.00;;;18.80
25514;BMP180;48128;54.242;10.280;2023-05-07T13:58:58;102005.00;;;18.80
25514;BMP180;48128;54.242;10.280;2023-05-07T14:01:26;101994.00;;;18.90
25514;BMP180;48128;54.242;10.280;2023-05-07T14:03:55;102010.00;;;19.20
25514;BMP180;48128;54.242;10.280;2023-05-07T14:06:22;102020.00;;;19.30
25514;BMP180;48128;54.242;10.280;2023-05-07T14:08:49;102027.00;;;19.30
25514;BMP180;48128;54.242;10.280;2023-05-07T14:11:16;102034.00;;;19.10
25514;BMP180;48128;54.242;10.280;2023-05-07T14:13:43;102027.00;;;19.30
25514;BMP180;48128;54.242;10.280;2023-05-07T14:16:10;102020.00;;;19.50
25514;BMP180;48128;54.242;10.280;2023-05-07T14:18:37;102032.00;;;19.70
25514;BMP180;48128;54.242;10.280;2023-05-07T14:21:05;102023.00;;;19.50
25514;BMP180;48128;54.242;10.280;2023-05-07T14:23:36;102021.00;;;19.10
25514;BMP180;48128;54.242;10.280;2023-05-07T14:26:03;102027.00;;;18.90
25514;BMP180;48128;54.242;10.280;2023-05-07T14:28:32;102026.00;;;18.80
25514;BMP180;48128;54.242;10.280;2023-05-07T14:30:59;101992.00;;;18.70
25514;BMP180;48128;54.242;10.280;2023-05-07T14:33:26;102023.00;;;18.90
25514;BMP180;48128;54.242;10.280;2023-05-07T14:35:53;102019.00;;;19.30
25514;BMP180;48128;54.242;10.280;2023-05-07T14:38:20;102023.00;;;19.40
25514;BMP180;48128;54.242;10.280;2023-05-07T14:40:47;102032.00;;;19.10
25514;BMP180;48128;54.242;10.280;2023-05-07T14:43:13;102013.00;;;19.10
25514;BMP180;48128;54.242;10.280;2023-05-07T14:45:41;102018.00;;;18.70
25514;BMP180;48128;54.242;10.280;2023-05-07T14:48:07;101998.00;;;18.80
25514;BMP180;48128;54.242;10.280;2023-05-07T14:50:35;102012.00;;;18.80
25514;BMP180;48128;54.242;10.280;2023-05-07T14:53:04;102012.00;;;18.90
25514;BMP180;48128;54.242;10.280;2023-05-07T14:55:31;102013.00;;;18.70
25514;BMP180;48128;54.242;10.280;2023-05-07T14:58:01;102023.00;;;18.70
25514;BMP180;48128;54.242;10.280;2023-05-07T15:00:28;102019.00;;;18.70
25514;BMP180;48128;54.242;10.280;2023-05-07T15:02:59;102026.00;;;18.50
25514;BMP180;48128;54.242;10.280;2023-05-07T15:05:27;102014.00;;;18.10
25514;BMP180;48128;54.242;10.280;2023-05-07T15:07:54;102013.00;;;18.00
25514;BMP180;48128;54.242;10.280;2023-05-07T15:10:23;102002.00;;;17.80
25514;BMP180;48128;54.242;10.280;2023-05-07T15:12:50;102002.00;;;17.80
25514;BMP180;48128;54.242;10.280;2023-05-07T15:15:17;101998.00;;;18.00
25514;BMP180;48128;54.242;10.280;2023-05-07T15:17:44;101989.00;;;18.20
25514;BMP180;48128;54.242;10.280;2023-05-07T15:20:11;101999.00;;;18.30
25514;BMP180;48128;54.242;10.280;2023-05-07T15:22:38;102001.00;;;18.00
25514;BMP180;48128;54.242;10.280;2023-05-07T15:25:05;101984.00;;;18.10
25514;BMP180;48128;54.242;10.280;2023-05-07T15:27:32;102011.00;;;18.30
25514;BMP180;48128;54.242;10.280;2023-05-07T15:29:59;102004.00;;;18.10
25514;BMP180;48128;54.242;10.280;2023-05-07T15:32:26;102009.00;;;18.10
25514;BMP180;48128;54.242;10.280;2023-05-07T15:34:53;102006.00;;;18.10
25514;BMP180;48128;54.242;10.280;2023-05-07T15:37:20;102011.00;;;17.90
25514;BMP180;48128;54.242;10.280;2023-05-07T15:39:47;102016.00;;;17.60
25514;BMP180;48128;54.242;10.280;2023-05-07T15:42:13;101998.00;;;17.40
25514;BMP180;48128;54.242;10.280;2023-05-07T15:44:40;102001.00;;;17.40
25514;BMP180;48128;54.242;10.280;2023-05-07T15:47:07;101997.00;;;17.40
25514;BMP180;48128;54.242;10.280;2023-05-07T15:49:34;101999.00;;;17.20
25514;BMP180;48128;54.242;10.280;2023-05-07T15:52:01;101987.00;;;17.30
25514;BMP180;48128;54.242;10.280;2023-05-07T15:54:30;101983.00;;;17.30
25514;BMP180;48128;54.242;10.280;2023-05-07T15:56:57;101979.00;;;17.40
25514;BMP180;48128;54.242;10.280;2023-05-07T15:59:24;101996.00;;;17.40
25514;BMP180;48128;54.242;10.280;2023-05-07T16:01:51;102011.00;;;17.30
25514;BMP180;48128;54.242;10.280;2023-05-07T16:04:19;102000.00;;;17.10
25514;BMP180;48128;54.242;10.280;2023-05-07T16:06:46;102006.00;;;17.00
25514;BMP180;48128;54.242;10.280;2023-05-07T16:09:13;101993.00;;;17.00
25514;BMP180;48128;54.242;10.280;2023-05-07T16:11:40;102002.00;;;17.00
25514;BMP180;48128;54.242;10.280;2023-05-07T16:14:07;102000.00;;;17.00
25514;BMP180;48128;54.242;10.280;2023-05-07T16:16:34;101997.00;;;16.90
25514;BMP180;48128;54.242;10.280;2023-05-07T16:19:03;102002.00;;;16.80
25514;BMP180;48128;54.242;10.280;2023-05-07T16:21:30;102001.00;;;16.80
25514;BMP180;48128;54.242;10.280;2023-05-07T16:23:58;101990.00;;;16.70
25514;BMP180;48128;54.242;10.280;2023-05-07T16:26:25;101996.00;;;16.70
25514;BMP180;48128;54.242;10.280;2023-05-07T16:28:52;101982.00;;;16.70
25514;BMP180;48128;54.242;10.280;2023-05-07T16:31:19;101992.00;;;16.70
25514;BMP180;48128;54.242;10.280;2023-05-07T16:33:46;101997.00;;;16.70
25514;BMP180;48128;54.242;10.280;2023-05-07T16:36:13;101986.00;;;16.70
25514;BMP180;48128;54.242;10.280;2023-05-07T16:38:40;101985.00;;;16.60
25514;BMP180;48128;54.242;10.280;2023-05-07T16:41:07;101969.00;;;16.60
25514;BMP180;48128;54.242;10.280;2023-05-07T16:43:33;101967.00;;;16.50
25514;BMP180;48128;54.242;10.280;2023-05-07T16:46:00;101967.00;;;16.40
25514;BMP180;48128;54.242;10.280;2023-05-07T16:48:28;101963.00;;;16.20
25514;BMP180;48128;54.242;10.280;2023-05-07T16:50:54;101960.00;;;16.00
25514;BMP180;48128;54.242;10.280;2023-05-07T16:53:23;101958.00;;;15.90
25514;BMP180;48128;54.242;10.280;2023-05-07T16:55:50;101958.00;;;15.80
25514;BMP180;48128;54.242;10.280;2023-05-07T16:58:21;101962.00;;;15.80
25514;BMP180;48128;54.242;10.280;2023-05-07T17:00:48;101966.00;;;15.70
25514;BMP180;48128;54.242;10.280;2023-05-07T17:03:17;101952.00;;;15.70
25514;BMP180;48128;54.242;10.280;2023-05-07T17:05:45;101965.00;;;15.60
25514;BMP180;48128;54.242;10.280;2023-05-07T17:08:12;101960.00;;;15.60
25514;BMP180;48128;54.242;10.280;2023-05-07T17:10:40;101943.00;;;15.50
25514;BMP180;48128;54.242;10.280;2023-05-07T17:13:07;101933.00;;;15.40
25514;BMP180;48128;54.242;10.280;2023-05-07T17:15:34;101939.00;;;15.30
25514;BMP180;48128;54.242;10.280;2023-05-07T17:18:01;101935.00;;;15.10
25514;BMP180;48128;54.242;10.280;2023-05-07T17:20:28;101922.00;;;15.00
25514;BMP180;48128;54.242;10.280;2023-05-07T17:22:55;101926.00;;;14.80
25514;BMP180;48128;54.242;10.280;2023-05-07T17:25:22;101926.00;;;14.70
25514;BMP180;48128;54.242;10.280;2023-05-07T17:27:49;101926.00;;;14.60
25514;BMP180;48128;54.242;10.280;2023-05-07T17:30:17;101929.00;;;14.50
25514;BMP180;48128;54.242;10.280;2023-05-07T17:32:44;101925.00;;;14.40
25514;BMP180;48128;54.242;10.280;2023-05-07T17:35:11;101917.00;;;14.30
25514;BMP180;48128;54.242;10.280;2023-05-07T17:37:38;101930.00;;;14.30
25514;BMP180;48128;54.242;10.280;2023-05-07T17:40:06;101924.00;;;14.20
25514;BMP180;48128;54.242;10.280;2023-05-07T17:42:33;101931.00;;;14.10
25514;BMP180;48128;54.242;10.280;2023-05-07T17:45:00;101927.00;;;14.00
25514;BMP180;48128;54.242;10.280;2023-05-07T17:47:27;101925.00;;;13.90
25514;BMP180;48128;54.242;10.280;2023-05-07T17:49:54;101930.00;;;13.80
25514;BMP180;48128;54.242;10.280;2023-05-07T17:52:21;101932.00;;;13.70
25514;BMP180;48128;54.242;10.280;2023-05-07T17:54:48;101932.00;;;13.60
25514;BMP180;48128;54.242;10.280;2023-05-07T17:57:15;101942.00;;;13.50
25514;BMP180;48128;54.242;10.280;2023-05-07T17:59:42;101930.00;;;13.40
25514;BMP180;48128;54.242;10.280;2023-05-07T18:02:09;101935.00;;;13.30
25514;BMP180;48128;54.242;10.280;2023-05-07T18:04:36;101942.00;;;13.20
25514;BMP180;48128;54.242;10.280;2023-05-07T18:07:03;101943.00;;;13.20
25514;BMP180;48128;54.242;10.280;2023-05-07T18:09:30;101953.00;;;13.10
25514;BMP180;48128;54.242;10.280;2023-05-07T18:11:59;101947.00;;;13.00
25514;BMP180;48128;54.242;10.280;2023-05-07T18:14:26;101948.00;;;12.90
25514;BMP180;48128;54.242;10.280;2023-05-07T18:16:53;101949.00;;;12.90
25514;BMP180;48128;54.242;10.280;2023-05-07T18:19:20;101948.00;;;12.80
25514;BMP180;48128;54.242;10.280;2023-05-07T18:21:47;101948.00;;;12.70
25514;BMP180;48128;54.242;10.280;2023-05-07T18:24:14;101940.00;;;12.60
25514;BMP180;48128;54.242;10.280;2023-05-07T18:26:41;101955.00;;;12.50
25514;BMP180;48128;54.242;10.280;2023-05-07T18:29:09;101953.00;;;12.40
25514;BMP180;48128;54.242;10.280;2023-05-07T18:31:36;101945.00;;;12.40
25514;BMP180;48128;54.242;10.280;2023-05-07T18:34:04;101942.00;;;12.30
25514;BMP180;48128;54.242;10.280;2023-05-07T18:36:32;101948.00;;;12.20
25514;BMP180;48128;54.242;10.280;2023-05-07T18:38:59;101955.00;;;12.10
25514;BMP180;48128;54.242;10.280;2023-05-07T18:41:26;101950.00;;;12.00
25514;BMP180;48128;54.242;10.280;2023-05-07T18:43:53;101958.00;;;11.90
25514;BMP180;48128;54.242;10.280;2023-05-07T18:46:20;101948.00;;;11.80
25514;BMP180;48128;54.242;10.280;2023-05-07T18:48:47;101950.00;;;11.80
25514;BMP180;48128;54.242;10.280;2023-05-07T18:51:14;101961.00;;;11.70
25514;BMP180;48128;54.242;10.280;2023-05-07T18:53:41;101962.00;;;11.60
25514;BMP180;48128;54.242;10.280;2023-05-07T18:56:08;101957.00;;;11.50
25514;BMP180;48128;54.242;10.280;2023-05-07T18:58:35;101955.00;;;11.40
25514;BMP180;48128;54.242;10.280;2023-05-07T19:01:02;101960.00;;;11.30
25514;BMP180;48128;54.242;10.280;2023-05-07T19:03:34;101967.00;;;11.20
25514;BMP180;48128;54.242;10.280;2023-05-07T19:06:01;101964.00;;;11.20
25514;BMP180;48128;54.242;10.280;2023-05-07T19:08:28;101969.00;;;11.10
25514;BMP180;48128;54.242;10.280;2023-05-07T19:10:55;101960.00;;;11.00
25514;BMP180;48128;54.242;10.280;2023-05-07T19:13:22;101960.00;;;10.90
25514;BMP180;48128;54.242;10.280;2023-05-07T19:15:52;101956.00;;;10.90
25514;BMP180;48128;54.242;10.280;2023-05-07T19:18:19;101970.00;;;10.80
25514;BMP180;48128;54.242;10.280;2023-05-07T19:20:47;101969.00;;;10.70
25514;BMP180;48128;54.242;10.280;2023-05-07T19:23:20;101963.00;;;10.60
25514;BMP180;48128;54.242;10.280;2023-05-07T19:25:46;101973.00;;;10.60
25514;BMP180;48128;54.242;10.280;2023-05-07T19:28:13;101978.00;;;10.50
25514;BMP180;48128;54.242;10.280;2023-05-07T19:30:40;101991.00;;;10.50
25514;BMP180;48128;54.242;10.280;2023-05-07T19:33:07;101978.00;;;10.50
25514;BMP180;48128;54.242;10.280;2023-05-07T19:35:34;102001.00;;;10.40
25514;BMP180;48128;54.242;10.280;2023-05-07T19:38:01;101994.00;;;10.40
25514;BMP180;48128;54.242;10.280;2023-05-07T19:40:29;101997.00;;;10.40
25514;BMP180;48128;54.242;10.280;2023-05-07T19:42:55;102000.00;;;10.30
25514;BMP180;48128;54.242;10.280;2023-05-07T19:45:22;102002.00;;;10.30
25514;BMP180;48128;54.242;10.280;2023-05-07T19:47:50;102005.00;;;10.20
25514;BMP180;48128;54.242;10.280;2023-05-07T19:50:17;101997.00;;;10.20
25514;BMP180;48128;54.242;10.280;2023-05-07T19:52:44;102010.00;;;10.10
25514;BMP180;48128;54.242;10.280;2023-05-07T19:55:11;102001.00;;;10.10
25514;BMP180;48128;54.242;10.280;2023-05-07T19:57:38;102011.00;;;10.00
25514;BMP180;48128;54.242;10.280;2023-05-07T20:00:14;102011.00;;;10.00
